createdAt,value
2022-09-06T00:01:17.071Z,22.76
2022-09-06T00:03:45.845Z,22.70
2022-09-06T00:06:15.885Z,22.64
2022-09-06T00:08:45.915Z,22.54
2022-09-06T00:11:14.525Z,22.52
2022-09-06T00:13:42.304Z,22.45
2022-09-06T00:16:11.998Z,22.36
2022-09-06T00:18:40.127Z,22.12
2022-09-06T00:21:16.615Z,22.23
2022-09-06T00:23:45.869Z,22.45
2022-09-06T00:26:13.862Z,22.10
2022-09-06T00:28:41.865Z,22.08
2022-09-06T00:31:11.358Z,22.24
2022-09-06T00:33:39.364Z,22.18
2022-09-06T00:36:07.632Z,22.30
2022-09-06T00:38:35.508Z,22.07
2022-09-06T00:41:04.773Z,22.13
2022-09-06T00:43:32.896Z,21.98
2022-09-06T00:46:01.137Z,21.91
2022-09-06T00:48:29.138Z,22.17
2022-09-06T00:51:00.033Z,21.77
2022-09-06T00:53:28.071Z,22.10
2022-09-06T00:55:56.011Z,21.81
2022-09-06T00:58:25.694Z,21.53
2022-09-06T01:00:54.006Z,21.73
2022-09-06T01:03:23.118Z,21.42
2022-09-06T01:05:57.841Z,21.55
2022-09-06T01:08:32.183Z,21.39
2022-09-06T01:11:14.638Z,21.52
2022-09-06T01:13:50.193Z,21.55
2022-09-06T01:16:34.320Z,21.58
2022-09-06T01:19:17.208Z,21.85
2022-09-06T01:21:50.213Z,21.20
2022-09-06T01:24:46.154Z,21.42
2022-09-06T01:27:46.598Z,21.07
2022-09-06T01:30:18.044Z,21.18
2022-09-06T01:32:52.299Z,21.21
2022-09-06T01:35:28.734Z,21.15
2022-09-06T01:37:56.726Z,21.15
2022-09-06T01:40:24.542Z,21.23
2022-09-06T01:42:53.208Z,21.04
2022-09-06T01:45:24.556Z,21.12
2022-09-06T01:48:07.307Z,20.93
2022-09-06T01:50:48.795Z,21.22
2022-09-06T01:53:30.212Z,21.34
2022-09-06T01:56:01.512Z,21.09
2022-09-06T01:58:42.545Z,21.23
2022-09-06T02:01:21.105Z,21.15
2022-09-06T02:03:54.087Z,20.91
2022-09-06T02:06:24.859Z,20.97
2022-09-06T02:08:55.144Z,21.43
2022-09-06T02:11:23.419Z,21.27
2022-09-06T02:13:53.545Z,21.34
2022-09-06T02:16:25.448Z,21.19
2022-09-06T02:18:56.208Z,20.95
2022-09-06T02:21:31.670Z,21.21
2022-09-06T02:24:03.100Z,21.02
2022-09-06T02:26:33.979Z,21.14
2022-09-06T02:29:03.140Z,21.35
2022-09-06T02:31:35.053Z,21.10
2022-09-06T02:34:03.011Z,21.22
2022-09-06T02:36:31.128Z,20.94
2022-09-06T02:39:01.004Z,21.40
2022-09-06T02:41:30.938Z,21.35
2022-09-06T02:43:58.786Z,21.26
2022-09-06T02:46:26.663Z,21.44
2022-09-06T02:48:55.789Z,21.02
2022-09-06T02:51:23.529Z,20.90
2022-09-06T02:53:51.319Z,21.30
2022-09-06T02:56:19.112Z,21.31
2022-09-06T02:58:46.999Z,21.14
2022-09-06T03:01:14.887Z,20.97
2022-09-06T03:03:42.713Z,20.92
2022-09-06T03:06:11.768Z,21.19
2022-09-06T03:08:39.561Z,21.11
2022-09-06T03:11:07.433Z,21.11
2022-09-06T03:13:35.533Z,20.85
2022-09-06T03:16:03.753Z,21.03
2022-09-06T03:18:32.343Z,20.41
2022-09-06T03:21:00.238Z,20.78
2022-09-06T03:23:30.208Z,20.70
2022-09-06T03:25:58.244Z,20.33
2022-09-06T03:28:26.188Z,20.12
2022-09-06T03:30:54.260Z,20.47
2022-09-06T03:33:22.647Z,20.27
2022-09-06T03:35:51.156Z,20.43
2022-09-06T03:38:19.365Z,19.83
2022-09-06T03:40:49.398Z,19.97
2022-09-06T03:43:18.366Z,19.72
2022-09-06T03:45:47.010Z,19.64
2022-09-06T03:48:15.375Z,19.91
2022-09-06T03:50:46.612Z,20.35
2022-09-06T03:53:15.138Z,19.97
2022-09-06T03:55:45.765Z,20.22
2022-09-06T03:58:14.988Z,19.65
2022-09-06T04:00:42.739Z,20.00
2022-09-06T04:03:10.546Z,19.75
2022-09-06T04:05:38.344Z,19.66
2022-09-06T04:08:06.570Z,19.28
2022-09-06T04:10:34.712Z,19.42
2022-09-06T04:13:02.432Z,19.28
2022-09-06T04:15:31.532Z,19.23
2022-09-06T04:17:59.318Z,19.14
2022-09-06T04:20:27.163Z,19.41
2022-09-06T04:22:54.909Z,19.57
2022-09-06T04:25:22.681Z,19.22
2022-09-06T04:27:50.492Z,19.44
2022-09-06T04:30:18.287Z,19.46
2022-09-06T04:32:47.415Z,19.30
2022-09-06T04:35:15.396Z,19.29
2022-09-06T04:37:43.205Z,19.05
2022-09-06T04:40:11.854Z,19.15
2022-09-06T04:42:39.716Z,19.50
2022-09-06T04:45:08.592Z,19.19
2022-09-06T04:47:36.379Z,19.37
2022-09-06T04:50:06.414Z,19.38
2022-09-06T04:52:34.179Z,19.35
2022-09-06T04:55:01.963Z,19.27
2022-09-06T04:57:29.691Z,18.90
2022-09-06T04:59:57.436Z,19.12
2022-09-06T05:02:25.289Z,19.18
2022-09-06T05:04:53.562Z,19.05
2022-09-06T05:07:22.719Z,19.01
2022-09-06T05:09:50.488Z,19.20
2022-09-06T05:12:18.245Z,19.19
2022-09-06T05:14:46.020Z,18.91
2022-09-06T05:17:15.168Z,19.06
2022-09-06T05:19:42.892Z,19.20
2022-09-06T05:22:11.936Z,18.82
2022-09-06T05:24:41.035Z,18.79
2022-09-06T05:27:08.844Z,19.16
2022-09-06T05:29:36.552Z,18.96
2022-09-06T05:32:04.326Z,18.90
2022-09-06T05:34:32.177Z,19.01
2022-09-06T05:36:59.989Z,19.28
2022-09-06T05:39:27.741Z,18.91
2022-09-06T05:41:56.845Z,19.17
2022-09-06T05:44:24.675Z,19.18
2022-09-06T05:46:53.491Z,19.51
2022-09-06T05:49:21.240Z,19.41
2022-09-06T05:51:51.846Z,18.74
2022-09-06T05:54:19.657Z,18.86
2022-09-06T05:56:47.449Z,19.00
2022-09-06T05:59:16.901Z,18.87
2022-09-06T06:01:48.947Z,19.05
2022-09-06T06:04:18.493Z,19.07
2022-09-06T06:06:46.780Z,19.10
2022-09-06T06:09:14.840Z,18.95
2022-09-06T06:11:43.100Z,18.84
2022-09-06T06:14:11.078Z,18.80
2022-09-06T06:16:40.238Z,18.60
2022-09-06T06:19:08.079Z,18.89
2022-09-06T06:21:37.264Z,19.23
2022-09-06T06:24:06.716Z,18.72
2022-09-06T06:26:36.611Z,18.56
2022-09-06T06:29:08.056Z,19.00
2022-09-06T06:31:37.299Z,18.82
2022-09-06T06:34:06.648Z,18.67
2022-09-06T06:36:35.616Z,18.96
2022-09-06T06:39:08.329Z,18.98
2022-09-06T06:41:36.144Z,18.90
2022-09-06T06:44:05.274Z,19.14
2022-09-06T06:46:34.647Z,19.16
2022-09-06T06:49:04.154Z,19.19
2022-09-06T06:51:35.989Z,18.92
2022-09-06T06:54:04.499Z,18.80
2022-09-06T06:56:34.609Z,19.00
2022-09-06T06:59:04.280Z,18.78
2022-09-06T07:01:33.383Z,18.87
2022-09-06T07:04:03.481Z,18.73
2022-09-06T07:09:21.081Z,19.17
2022-09-06T07:11:49.601Z,19.21
2022-09-06T07:14:17.542Z,18.85
2022-09-06T07:16:45.455Z,19.11
2022-09-06T07:22:05.355Z,18.90
2022-09-06T07:24:33.713Z,18.91
2022-09-06T07:29:50.800Z,19.08
2022-09-06T07:32:19.803Z,19.24
2022-09-06T07:34:47.555Z,19.04
2022-09-06T07:37:16.824Z,19.01
2022-09-06T07:39:44.659Z,18.89
2022-09-06T07:42:12.424Z,18.92
2022-09-06T07:44:40.174Z,19.00
2022-09-06T07:53:20.508Z,19.11
2022-09-06T07:55:33.715Z,19.14
2022-09-06T07:58:02.956Z,19.29
2022-09-06T08:00:31.608Z,19.12
2022-09-06T08:02:59.868Z,19.19
2022-09-06T08:11:06.352Z,19.16
2022-09-06T08:13:34.369Z,19.43
2022-09-06T08:16:03.240Z,19.42
2022-09-06T08:18:31.047Z,19.22
2022-09-06T08:21:11.551Z,19.42
2022-09-06T08:23:43.610Z,19.46
2022-09-06T08:26:11.910Z,19.65
2022-09-06T08:28:39.758Z,19.27
2022-09-06T08:31:09.556Z,19.53
2022-09-06T08:33:37.567Z,19.75
2022-09-06T08:36:05.858Z,19.90
2022-09-06T08:38:33.954Z,20.11
2022-09-06T08:41:11.506Z,20.02
2022-09-06T08:43:40.099Z,19.63
2022-09-06T08:46:08.924Z,19.84
2022-09-06T08:48:39.608Z,19.74
2022-09-06T08:51:41.145Z,19.91
2022-09-06T08:54:13.724Z,20.04
2022-09-06T08:57:03.429Z,20.15
2022-09-06T08:59:37.643Z,19.86
2022-09-06T09:02:11.542Z,20.21
2022-09-06T09:04:43.673Z,20.02
2022-09-06T09:07:25.204Z,19.84
2022-09-06T09:09:53.547Z,20.01
2022-09-06T09:12:24.480Z,20.03
2022-09-06T09:14:54.883Z,19.91
2022-09-06T09:17:26.430Z,20.26
2022-09-06T09:19:54.178Z,20.15
2022-09-06T09:22:21.977Z,20.21
2022-09-06T09:24:51.702Z,20.29
2022-09-06T09:27:22.509Z,19.89
2022-09-06T09:32:50.897Z,20.06
2022-09-06T09:35:26.942Z,20.15
2022-09-06T09:38:07.781Z,20.40
2022-09-06T09:40:41.542Z,20.31
2022-09-06T09:43:16.205Z,20.47
2022-09-06T09:45:45.013Z,20.81
2022-09-06T09:48:22.116Z,20.76
2022-09-06T09:50:50.969Z,20.74
2022-09-06T09:53:22.081Z,20.74
2022-09-06T09:55:50.459Z,20.82
2022-09-06T09:58:31.703Z,20.79
2022-09-06T10:01:11.883Z,20.91
2022-09-06T10:09:19.755Z,21.13
2022-09-06T10:11:55.444Z,21.07
2022-09-06T10:14:29.867Z,21.22
2022-09-06T10:16:58.976Z,21.30
2022-09-06T10:19:45.620Z,21.25
2022-09-06T10:22:24.365Z,21.23
2022-09-06T10:25:21.956Z,21.49
2022-09-06T10:28:11.071Z,21.47
2022-09-06T10:30:45.944Z,21.62
2022-09-06T10:33:21.610Z,21.57
2022-09-06T10:35:49.389Z,21.67
2022-09-06T10:38:30.436Z,21.77
2022-09-06T10:41:05.848Z,21.82
2022-09-06T10:43:43.667Z,21.89
2022-09-06T10:46:18.648Z,21.97
2022-09-06T10:48:47.053Z,21.84
2022-09-06T10:51:23.708Z,21.93
2022-09-06T10:53:54.254Z,21.93
2022-09-06T10:56:25.713Z,21.98
2022-09-06T11:01:56.000Z,22.21
2022-09-06T11:04:27.287Z,21.85
2022-09-06T11:06:58.617Z,21.86
2022-09-06T11:09:30.277Z,22.01
2022-09-06T11:12:04.615Z,21.99
2022-09-06T11:14:32.592Z,21.88
2022-09-06T11:17:05.455Z,21.97
2022-09-06T11:19:38.893Z,22.11
2022-09-06T11:22:50.061Z,22.24
2022-09-06T11:25:59.117Z,21.97
2022-09-06T11:28:32.821Z,21.98
2022-09-06T11:31:00.791Z,21.99
2022-09-06T11:33:31.537Z,22.12
2022-09-06T11:36:17.635Z,22.14
2022-09-06T11:38:55.604Z,22.32
2022-09-06T11:41:28.921Z,22.28
2022-09-06T11:43:56.829Z,22.17
2022-09-06T11:46:59.555Z,22.33
2022-09-06T11:49:39.077Z,22.43
2022-09-06T11:52:59.108Z,22.06
2022-09-06T11:55:33.605Z,22.07
2022-09-06T11:58:04.070Z,22.20
2022-09-06T12:00:32.510Z,22.16
2022-09-06T12:06:16.787Z,22.26
2022-09-06T12:08:44.993Z,21.95
2022-09-06T12:11:37.652Z,21.82
2022-09-06T12:14:07.093Z,21.98
2022-09-06T12:17:27.462Z,22.00
2022-09-06T12:20:06.293Z,22.09
2022-09-06T12:22:55.172Z,22.02
2022-09-06T12:26:05.541Z,22.02
2022-09-06T12:28:42.412Z,22.09
2022-09-06T12:31:38.070Z,22.00
2022-09-06T12:34:13.568Z,21.84
2022-09-06T12:36:54.518Z,22.01
2022-09-06T12:39:24.229Z,21.94
2022-09-06T12:41:54.965Z,21.84
2022-09-06T12:44:29.407Z,21.72
2022-09-06T12:47:03.370Z,21.64
2022-09-06T12:49:31.103Z,21.78
2022-09-06T12:52:07.937Z,21.77
2022-09-06T12:54:43.429Z,21.83
2022-09-06T12:57:16.196Z,21.77
2022-09-06T12:59:54.651Z,21.72
2022-09-06T13:02:31.170Z,21.88
2022-09-06T13:05:05.304Z,21.70
2022-09-06T13:07:35.336Z,21.92
2022-09-06T13:10:05.078Z,21.93
2022-09-06T13:12:34.639Z,21.94
2022-09-06T13:15:06.476Z,21.92
2022-09-06T13:17:35.416Z,21.83
2022-09-06T13:20:12.462Z,22.00
2022-09-06T13:22:43.311Z,22.00
2022-09-06T13:25:25.080Z,22.07
2022-09-06T13:27:57.631Z,22.12
2022-09-06T13:30:37.710Z,22.00
2022-09-06T13:33:07.114Z,21.93
2022-09-06T13:35:38.133Z,22.12
2022-09-06T13:38:23.266Z,21.97
2022-09-06T13:43:44.875Z,21.77
2022-09-06T13:46:12.892Z,21.76
2022-09-06T13:48:41.540Z,21.59
2022-09-06T13:51:10.916Z,21.69
2022-09-06T13:53:38.683Z,21.74
2022-09-06T13:56:08.471Z,21.76
2022-09-06T13:58:36.783Z,21.63
2022-09-06T14:01:05.021Z,21.77
2022-09-06T14:03:33.486Z,21.79
2022-09-06T14:06:01.592Z,21.67
2022-09-06T14:08:43.819Z,21.77
2022-09-06T14:11:19.360Z,21.66
2022-09-06T14:13:47.832Z,21.89
2022-09-06T14:16:15.644Z,21.81
2022-09-06T14:18:43.593Z,21.83
2022-09-06T14:21:11.624Z,21.66
2022-09-06T14:23:39.492Z,21.86
2022-09-06T14:26:07.264Z,21.81
2022-09-06T14:28:36.404Z,21.76
2022-09-06T14:31:11.895Z,22.02
2022-09-06T14:33:39.716Z,22.01
2022-09-06T14:36:10.023Z,22.08
2022-09-06T14:38:38.956Z,22.12
2022-09-06T14:41:07.869Z,22.21
2022-09-06T14:43:37.703Z,22.02
2022-09-06T14:46:06.759Z,22.02
2022-09-06T14:48:38.184Z,22.06
2022-09-06T14:51:10.249Z,22.03
2022-09-06T14:53:41.361Z,21.97
2022-09-06T14:56:10.088Z,21.97
2022-09-06T14:58:40.695Z,21.87
2022-09-06T15:01:11.552Z,21.74
2022-09-06T15:03:40.175Z,21.80
2022-09-06T15:06:08.991Z,21.81
2022-09-06T15:08:37.666Z,21.94
2022-09-06T15:11:08.074Z,22.11
2022-09-06T15:13:37.082Z,21.83
2022-09-06T15:16:06.671Z,21.74
2022-09-06T15:18:35.028Z,21.67
2022-09-06T15:21:09.705Z,21.83
2022-09-06T15:23:37.630Z,21.95
2022-09-06T15:26:07.650Z,22.00
2022-09-06T15:28:35.620Z,21.72
2022-09-06T15:31:03.413Z,21.85
2022-09-06T15:33:34.029Z,21.87
2022-09-06T15:36:05.976Z,21.95
2022-09-06T15:38:33.666Z,21.99
2022-09-06T15:41:08.108Z,21.89
2022-09-06T15:43:36.835Z,21.93
2022-09-06T15:46:04.652Z,21.90
2022-09-06T15:48:41.057Z,21.86
2022-09-06T15:51:08.918Z,21.82
2022-09-06T15:53:36.646Z,21.83
2022-09-06T15:56:04.803Z,21.93
2022-09-06T15:58:32.956Z,21.92
2022-09-06T16:01:05.574Z,21.75
2022-09-06T16:03:36.917Z,21.72
2022-09-06T16:08:58.280Z,21.80
2022-09-06T16:11:26.701Z,21.79
2022-09-06T16:13:54.526Z,21.69
2022-09-06T16:16:22.571Z,21.65
2022-09-06T16:18:53.031Z,21.60
2022-09-06T16:21:23.840Z,21.68
2022-09-06T16:23:53.507Z,21.82
2022-09-06T16:26:21.970Z,21.68
2022-09-06T16:28:51.150Z,21.59
2022-09-06T16:31:19.967Z,21.88
2022-09-06T16:33:48.752Z,21.91
2022-09-06T16:36:19.021Z,21.67
2022-09-06T16:38:47.145Z,21.56
2022-09-06T16:41:18.066Z,21.29
2022-09-06T16:43:46.112Z,21.43
2022-09-06T16:46:14.465Z,21.38
2022-09-06T16:48:42.376Z,21.51
2022-09-06T16:51:12.036Z,21.52
2022-09-06T16:53:42.771Z,21.67
2022-09-06T16:56:11.100Z,21.61
2022-09-06T16:58:41.666Z,21.48
2022-09-06T17:01:10.030Z,21.33
2022-09-06T17:03:38.396Z,21.22
2022-09-06T17:06:07.489Z,21.18
2022-09-06T17:08:36.449Z,21.23
2022-09-06T17:11:08.544Z,21.63
2022-09-06T17:13:36.927Z,21.65
2022-09-06T17:16:22.889Z,21.73
2022-09-06T17:18:52.483Z,21.64
2022-09-06T17:21:20.611Z,21.83
2022-09-06T17:23:49.015Z,21.52
2022-09-06T17:26:19.507Z,21.53
2022-09-06T17:28:47.202Z,21.85
2022-09-06T17:31:15.642Z,21.91
2022-09-06T17:33:43.520Z,21.97
2022-09-06T17:36:12.984Z,21.84
2022-09-06T17:38:41.131Z,21.90
2022-09-06T17:41:09.125Z,21.70
2022-09-06T17:43:38.617Z,21.72
2022-09-06T17:46:06.560Z,21.76
2022-09-06T17:48:34.920Z,21.90
2022-09-06T17:51:06.913Z,21.74
2022-09-06T17:53:35.909Z,21.75
2022-09-06T17:56:05.043Z,21.87
2022-09-06T17:58:33.250Z,21.99
2022-09-06T18:01:04.911Z,21.65
2022-09-06T18:03:32.861Z,21.84
2022-09-06T18:06:05.113Z,21.51
2022-09-06T18:08:32.803Z,21.48
2022-09-06T18:11:00.691Z,21.76
2022-09-06T18:13:30.392Z,21.56
2022-09-06T18:15:58.255Z,21.75
2022-09-06T18:18:28.133Z,21.58
2022-09-06T18:20:55.882Z,21.35
2022-09-06T18:23:23.581Z,21.33
2022-09-06T18:25:56.904Z,21.46
2022-09-06T18:28:25.059Z,21.52
2022-09-06T18:30:53.967Z,21.33
2022-09-06T18:33:23.521Z,21.22
2022-09-06T18:35:52.683Z,21.50
2022-09-06T18:38:21.400Z,21.47
2022-09-06T18:40:53.338Z,21.56
2022-09-06T18:43:22.357Z,21.28
2022-09-06T18:45:50.416Z,21.53
2022-09-06T18:48:18.402Z,21.37
2022-09-06T18:50:46.276Z,21.25
2022-09-06T18:53:18.098Z,21.20
2022-09-06T18:55:45.800Z,20.93
2022-09-06T18:58:14.077Z,20.62
2022-09-06T19:00:42.122Z,20.87
2022-09-06T19:03:10.231Z,20.69
2022-09-06T19:05:38.300Z,20.93
2022-09-06T19:08:06.307Z,20.88
2022-09-06T19:10:35.541Z,21.06
2022-09-06T19:13:05.463Z,20.73
2022-09-06T19:15:33.546Z,20.99
2022-09-06T19:18:02.935Z,20.96
2022-09-06T19:20:30.627Z,21.08
2022-09-06T19:22:58.312Z,20.96
2022-09-06T19:25:26.012Z,21.01
2022-09-06T19:27:55.033Z,20.89
2022-09-06T19:30:22.819Z,21.11
2022-09-06T19:32:50.497Z,21.03
2022-09-06T19:35:19.568Z,20.74
2022-09-06T19:37:47.590Z,21.02
2022-09-06T19:40:15.352Z,20.97
2022-09-06T19:42:44.644Z,21.24
2022-09-06T19:45:13.882Z,21.31
2022-09-06T19:47:41.563Z,21.38
2022-09-06T19:50:09.516Z,21.36
2022-09-06T19:52:37.217Z,21.38
2022-09-06T19:55:05.895Z,21.27
2022-09-06T19:57:33.557Z,21.35
2022-09-06T20:00:03.049Z,21.19
2022-09-06T20:02:32.202Z,21.16
2022-09-06T20:04:59.915Z,21.32
2022-09-06T20:07:28.392Z,21.17
2022-09-06T20:09:56.872Z,21.15
2022-09-06T20:12:24.541Z,21.10
2022-09-06T20:14:52.552Z,21.15
2022-09-06T20:17:33.354Z,21.27
2022-09-06T20:20:03.112Z,21.31
2022-09-06T20:22:30.941Z,21.20
2022-09-06T20:24:58.697Z,21.21
2022-09-06T20:27:26.495Z,21.23
2022-09-06T20:29:54.232Z,21.07
2022-09-06T20:32:21.944Z,21.14
2022-09-06T20:34:49.624Z,21.14
2022-09-06T20:37:18.660Z,21.17
2022-09-06T20:39:46.367Z,21.25
2022-09-06T20:42:14.056Z,21.25
2022-09-06T20:44:41.765Z,21.01
2022-09-06T20:47:09.577Z,21.16
2022-09-06T20:49:37.391Z,21.19
2022-09-06T20:52:05.483Z,21.28
2022-09-06T20:54:34.529Z,21.21
2022-09-06T20:57:04.476Z,21.37
2022-09-06T20:59:32.175Z,20.96
2022-09-06T21:01:59.874Z,21.06
2022-09-06T21:04:27.704Z,20.99
2022-09-06T21:06:55.504Z,21.29
2022-09-06T21:09:23.796Z,21.17
2022-09-06T21:11:54.145Z,21.22
2022-09-06T21:14:22.649Z,21.17
2022-09-06T21:16:50.479Z,21.14
2022-09-06T21:19:18.444Z,21.23
2022-09-06T21:21:46.128Z,21.02
2022-09-06T21:24:13.966Z,21.04
2022-09-06T21:26:43.604Z,21.05
2022-09-06T21:29:12.676Z,20.93
2022-09-06T21:31:40.408Z,20.93
2022-09-06T21:34:15.470Z,20.57
2022-09-06T21:36:44.315Z,20.90
2022-09-06T21:39:13.093Z,20.96
2022-09-06T21:41:42.446Z,20.75
2022-09-06T21:44:12.030Z,20.89
2022-09-06T21:46:40.640Z,21.03
2022-09-06T21:49:10.863Z,20.89
2022-09-06T21:51:39.038Z,20.90
2022-09-06T21:54:06.913Z,20.63
2022-09-06T21:56:35.788Z,20.66
2022-09-06T21:59:04.600Z,20.79
2022-09-06T22:01:35.295Z,20.73
2022-09-06T22:04:05.899Z,20.63
2022-09-06T22:06:34.868Z,20.53
2022-09-06T22:09:04.825Z,20.80
2022-09-06T22:11:33.957Z,20.62
2022-09-06T22:14:04.108Z,20.58
2022-09-06T22:16:34.507Z,20.87
2022-09-06T22:19:04.609Z,20.65
2022-09-06T22:21:32.680Z,20.64
2022-09-06T22:24:03.081Z,20.31
2022-09-06T22:26:32.657Z,20.47
2022-09-06T22:29:03.508Z,20.26
2022-09-06T22:31:33.895Z,20.44
2022-09-06T22:34:03.111Z,20.04
2022-09-06T22:36:30.989Z,20.13
2022-09-06T22:38:58.897Z,20.27
2022-09-06T22:41:27.931Z,20.44
2022-09-06T22:43:55.972Z,20.25
2022-09-06T22:46:23.970Z,20.34
2022-09-06T22:48:53.080Z,20.40
2022-09-06T22:51:20.791Z,20.42
2022-09-06T22:53:48.535Z,20.57
2022-09-06T22:56:16.248Z,20.50
2022-09-06T22:58:43.935Z,20.55
2022-09-06T23:01:13.744Z,20.24
2022-09-06T23:03:42.124Z,20.48
2022-09-06T23:06:11.622Z,20.23
2022-09-06T23:08:40.488Z,20.08
2022-09-06T23:11:09.824Z,20.28
2022-09-06T23:13:37.744Z,20.42
2022-09-06T23:16:10.126Z,20.26
2022-09-06T23:18:37.843Z,20.44
2022-09-06T23:21:06.987Z,20.42
2022-09-06T23:23:36.651Z,20.31
2022-09-06T23:26:06.030Z,20.43
2022-09-06T23:28:33.785Z,20.64
2022-09-06T23:31:03.552Z,20.43
2022-09-06T23:33:31.696Z,20.49
2022-09-06T23:35:59.400Z,20.51
2022-09-06T23:38:27.109Z,19.81
2022-09-06T23:40:56.292Z,20.15
2022-09-06T23:43:24.232Z,19.97
2022-09-06T23:45:51.954Z,20.26
2022-09-06T23:48:19.764Z,20.03
2022-09-06T23:50:47.709Z,20.14
2022-09-06T23:53:16.906Z,20.16
2022-09-06T23:55:44.754Z,20.24
2022-09-06T23:58:14.036Z,19.97
